Time;durP1;ratioP1;P1;durP2;ratioP2;P2;SDS_P1;SDS_P2;PMS_P1;PMS_P2;Temp;Humidity;BMP_temperature;BMP_pressure;BME280_temperature;BME280_humidity;BME280_pressure;Samples;Min_cycle;Max_cycle;Signal;HPM_P1;HPM_P2
2021/11/22 00:00:10;;;;;;;11.20;5.25;;;;;;;;;;5034239;28;20566;-78
2021/11/22 00:02:37;;;;;;;4.65;4.07;;;;;;;;;;5033866;28;20609;-79
2021/11/22 00:05:04;;;;;;;13.52;5.10;;;;;;;;;;5034495;28;20240;-79
2021/11/22 00:07:32;;;;;;;7.40;4.22;;;;;;;;;;5033737;28;20283;-77
2021/11/22 00:10:03;;;;;;;8.63;4.70;;;;;;;;;;5033342;28;20235;-77
2021/11/22 00:12:33;;;;;;;8.90;4.22;;;;;;;;;;5033181;28;20324;-77
2021/11/22 00:15:00;;;;;;;10.38;5.70;;;;;;;;;;5033553;28;20227;-77
2021/11/22 00:17:27;;;;;;;7.32;5.30;;;;;;;;;;5033521;28;20197;-77
2021/11/22 00:19:54;;;;;;;11.05;4.90;;;;;;;;;;5033614;28;20287;-77
2021/11/22 00:22:21;;;;;;;13.52;5.30;;;;;;;;;;5036237;28;20359;-77
2021/11/22 00:24:49;;;;;;;10.98;5.60;;;;;;;;;;5039784;28;20289;-77
2021/11/22 00:27:18;;;;;;;6.30;4.75;;;;;;;;;;5040484;28;20284;-77
2021/11/22 00:29:45;;;;;;;11.75;6.60;;;;;;;;;;5040473;28;20285;-77
2021/11/22 00:32:13;;;;;;;8.43;5.57;;;;;;;;;;5039988;28;20312;-79
2021/11/22 00:34:43;;;;;;;6.90;5.57;;;;;;;;;;5039752;28;20199;-77
2021/11/22 00:37:15;;;;;;;8.63;5.53;;;;;;;;;;5040588;28;20686;-77
2021/11/22 00:39:42;;;;;;;9.05;5.40;;;;;;;;;;5040670;28;20185;-77
2021/11/22 00:42:10;;;;;;;7.00;5.28;;;;;;;;;;5039982;28;20195;-77
2021/11/22 00:44:39;;;;;;;6.70;5.70;;;;;;;;;;5039974;28;20296;-77
2021/11/22 00:47:07;;;;;;;9.48;6.03;;;;;;;;;;5039945;28;20295;-76
2021/11/22 00:49:35;;;;;;;8.75;5.53;;;;;;;;;;5040354;28;20292;-77
2021/11/22 00:52:02;;;;;;;9.65;6.07;;;;;;;;;;5039803;28;20260;-77
2021/11/22 00:54:30;;;;;;;6.82;5.35;;;;;;;;;;5040267;28;20624;-77
2021/11/22 00:56:57;;;;;;;8.38;5.53;;;;;;;;;;5039882;28;20245;-78
2021/11/22 00:59:24;;;;;;;11.07;6.68;;;;;;;;;;5039806;28;20228;-78
2021/11/22 01:01:53;;;;;;;9.60;6.70;;;;;;;;;;5039882;28;20205;-77
2021/11/22 01:04:20;;;;;;;10.48;7.15;;;;;;;;;;5039821;28;20293;-78
2021/11/22 01:06:48;;;;;;;13.77;7.15;;;;;;;;;;5039493;28;20247;-78
2021/11/22 01:09:15;;;;;;;8.63;6.38;;;;;;;;;;5040503;28;20281;-77
2021/11/22 01:11:43;;;;;;;11.98;6.75;;;;;;;;;;5040052;28;20709;-77
2021/11/22 01:14:11;;;;;;;13.57;6.68;;;;;;;;;;5039426;28;20293;-77
2021/11/22 01:16:38;;;;;;;10.85;7.15;;;;;;;;;;5039380;28;20233;-77
2021/11/22 01:19:07;;;;;;;10.07;7.30;;;;;;;;;;5039639;28;20712;-76
2021/11/22 01:21:35;;;;;;;11.50;7.78;;;;;;;;;;5040093;28;20291;-78
2021/11/22 01:24:03;;;;;;;11.60;7.75;;;;;;;;;;5040364;28;20201;-78
2021/11/22 01:26:30;;;;;;;11.95;8.55;;;;;;;;;;5039612;28;20208;-77
2021/11/22 01:28:57;;;;;;;13.93;9.13;;;;;;;;;;5039313;28;20292;-78
2021/11/22 01:31:24;;;;;;;13.40;8.32;;;;;;;;;;5039191;28;20369;-78
2021/11/22 01:33:52;;;;;;;13.52;8.35;;;;;;;;;;5037663;28;20286;-78
2021/11/22 01:36:21;;;;;;;13.98;9.50;;;;;;;;;;5036449;28;20234;-77
2021/11/22 01:38:48;;;;;;;10.05;8.10;;;;;;;;;;5036328;28;20294;-78
2021/11/22 01:41:15;;;;;;;10.35;8.13;;;;;;;;;;5036026;28;20288;-78
2021/11/22 01:43:42;;;;;;;10.95;8.55;;;;;;;;;;5036027;28;20237;-78
2021/11/22 01:46:16;;;;;;;10.50;8.52;;;;;;;;;;5035920;28;20200;-78
2021/11/22 01:48:43;;;;;;;12.88;7.68;;;;;;;;;;5035900;28;20285;-76
2021/11/22 01:51:10;;;;;;;10.00;8.70;;;;;;;;;;5036276;28;20293;-77
2021/11/22 01:53:39;;;;;;;11.93;8.70;;;;;;;;;;5036342;28;20287;-77
2021/11/22 01:56:06;;;;;;;10.32;8.00;;;;;;;;;;5036378;28;20283;-77
2021/11/22 01:58:34;;;;;;;19.02;9.18;;;;;;;;;;5035958;28;20286;-77
2021/11/22 02:01:01;;;;;;;12.25;9.40;;;;;;;;;;5035680;28;20667;-77
2021/11/22 02:03:28;;;;;;;11.43;9.50;;;;;;;;;;5035626;28;20309;-77
2021/11/22 02:05:55;;;;;;;9.60;8.60;;;;;;;;;;5035097;28;20288;-77
2021/11/22 02:08:23;;;;;;;12.32;9.70;;;;;;;;;;5035493;28;20284;-76
2021/11/22 02:10:52;;;;;;;11.65;8.00;;;;;;;;;;5035148;28;20339;-77
2021/11/22 02:13:20;;;;;;;7.95;7.15;;;;;;;;;;5035967;28;20397;-77
2021/11/22 02:15:47;;;;;;;8.75;7.85;;;;;;;;;;5035387;28;20614;-76
2021/11/22 02:18:15;;;;;;;11.43;9.00;;;;;;;;;;5035791;28;20227;-77
2021/11/22 02:20:44;;;;;;;9.55;8.55;;;;;;;;;;5035474;28;20232;-76
2021/11/22 02:23:11;;;;;;;9.15;7.65;;;;;;;;;;5035046;28;20203;-78
2021/11/22 02:25:39;;;;;;;10.95;8.15;;;;;;;;;;5035144;28;20284;-77
2021/11/22 02:28:07;;;;;;;7.13;6.43;;;;;;;;;;5035070;28;20569;-77
2021/11/22 02:30:37;;;;;;;9.38;8.38;;;;;;;;;;5034614;28;20287;-77
2021/11/22 02:33:05;;;;;;;11.27;8.27;;;;;;;;;;5034877;28;20205;-77
2021/11/22 02:35:34;;;;;;;9.65;8.65;;;;;;;;;;5035152;28;20197;-77
2021/11/22 02:38:04;;;;;;;12.35;9.18;;;;;;;;;;5035506;28;20248;-77
2021/11/22 02:40:31;;;;;;;11.68;9.18;;;;;;;;;;5035014;28;20705;-77
2021/11/22 02:42:59;;;;;;;8.68;7.88;;;;;;;;;;5035244;28;20616;-78
2021/11/22 02:45:26;;;;;;;10.85;7.00;;;;;;;;;;5033888;28;20725;-77
2021/11/22 02:47:53;;;;;;;14.88;9.35;;;;;;;;;;5035147;28;20393;-77
2021/11/22 02:50:21;;;;;;;9.20;8.02;;;;;;;;;;5035150;28;20279;-78
2021/11/22 02:52:49;;;;;;;10.15;8.82;;;;;;;;;;5034593;28;20613;-77
2021/11/22 02:55:18;;;;;;;9.10;8.20;;;;;;;;;;5034646;28;20291;-78
2021/11/22 02:57:45;;;;;;;10.38;7.93;;;;;;;;;;5034714;28;20297;-77
2021/11/22 03:00:14;;;;;;;10.77;8.77;;;;;;;;;;5034723;28;20234;-76
2021/11/22 03:02:42;;;;;;;8.15;7.30;;;;;;;;;;5034455;28;20209;-76
2021/11/22 03:05:09;;;;;;;12.30;9.30;;;;;;;;;;5034393;28;20247;-76
2021/11/22 03:07:36;;;;;;;9.98;8.82;;;;;;;;;;5034115;28;20202;-76
2021/11/22 03:10:05;;;;;;;10.02;8.95;;;;;;;;;;5034039;28;20203;-76
2021/11/22 03:12:34;;;;;;;10.73;8.55;;;;;;;;;;5034386;28;20323;-77
2021/11/22 03:15:02;;;;;;;10.07;8.48;;;;;;;;;;5034273;28;20534;-76
2021/11/22 03:17:29;;;;;;;10.48;8.25;;;;;;;;;;5034262;28;20192;-77
2021/11/22 03:19:56;;;;;;;10.10;8.98;;;;;;;;;;5033955;28;20285;-78
2021/11/22 03:22:24;;;;;;;9.63;8.73;;;;;;;;;;5034247;28;20285;-77
2021/11/22 03:24:51;;;;;;;8.95;7.95;;;;;;;;;;5034051;28;20284;-77
2021/11/22 03:27:18;;;;;;;11.85;9.70;;;;;;;;;;5033912;28;20378;-77
2021/11/22 03:29:47;;;;;;;12.52;9.65;;;;;;;;;;5034242;28;20227;-78
2021/11/22 03:32:14;;;;;;;10.75;9.63;;;;;;;;;;5033814;28;20271;-78
2021/11/22 03:34:41;;;;;;;9.88;8.80;;;;;;;;;;5033514;28;20386;-77
2021/11/22 03:37:09;;;;;;;10.20;8.63;;;;;;;;;;5033750;28;20283;-78
2021/11/22 03:39:36;;;;;;;14.75;10.93;;;;;;;;;;5034361;28;20599;-78
2021/11/22 03:42:07;;;;;;;12.25;9.35;;;;;;;;;;5034411;28;20197;-77
2021/11/22 03:44:35;;;;;;;10.18;9.07;;;;;;;;;;5033848;28;20196;-77
2021/11/22 03:47:04;;;;;;;11.80;10.50;;;;;;;;;;5033269;28;20326;-78
2021/11/22 03:49:33;;;;;;;12.02;10.18;;;;;;;;;;5033208;28;20289;-78
2021/11/22 03:52:01;;;;;;;13.88;10.80;;;;;;;;;;5033585;28;20604;-78
2021/11/22 03:54:28;;;;;;;12.00;9.70;;;;;;;;;;5033412;28;20552;-78
2021/11/22 03:56:55;;;;;;;12.15;10.60;;;;;;;;;;5033476;28;20613;-78
2021/11/22 03:59:22;;;;;;;12.35;11.05;;;;;;;;;;5033087;28;20292;-78
2021/11/22 04:01:50;;;;;;;11.85;10.30;;;;;;;;;;5033633;28;20284;-78
2021/11/22 04:04:18;;;;;;;12.32;9.63;;;;;;;;;;5033555;28;20628;-78
2021/11/22 04:06:46;;;;;;;13.48;10.90;;;;;;;;;;5034038;28;20228;-78
2021/11/22 04:09:13;;;;;;;12.30;10.77;;;;;;;;;;5033846;28;20306;-78
2021/11/22 04:11:40;;;;;;;14.23;11.35;;;;;;;;;;5033486;28;20793;-76
2021/11/22 04:14:07;;;;;;;17.00;13.88;;;;;;;;;;5033680;28;20304;-78
2021/11/22 04:16:35;;;;;;;12.93;10.90;;;;;;;;;;5033363;28;20668;-77
2021/11/22 04:19:02;;;;;;;18.00;10.52;;;;;;;;;;5033430;28;20198;-77
2021/11/22 04:21:30;;;;;;;14.80;11.45;;;;;;;;;;5034129;28;20618;-77
2021/11/22 04:23:58;;;;;;;14.43;10.60;;;;;;;;;;5033610;28;20288;-77
2021/11/22 04:26:26;;;;;;;13.52;11.80;;;;;;;;;;5033784;28;20563;-76
2021/11/22 04:28:53;;;;;;;12.23;10.77;;;;;;;;;;5033319;28;20229;-76
2021/11/22 04:31:20;;;;;;;13.43;11.70;;;;;;;;;;5033724;28;20288;-78
2021/11/22 04:33:48;;;;;;;16.35;12.05;;;;;;;;;;5033966;28;20308;-78
2021/11/22 04:36:15;;;;;;;15.02;12.48;;;;;;;;;;5033684;28;20286;-77
2021/11/22 04:38:44;;;;;;;19.55;11.75;;;;;;;;;;5033484;28;20196;-77
2021/11/22 04:41:11;;;;;;;17.23;12.13;;;;;;;;;;5033635;28;20630;-77
2021/11/22 04:43:38;;;;;;;17.40;12.25;;;;;;;;;;5033773;28;20288;-77
2021/11/22 04:46:05;;;;;;;14.95;11.70;;;;;;;;;;5033420;28;20304;-77
2021/11/22 04:48:32;;;;;;;14.38;12.75;;;;;;;;;;5033404;28;20236;-77
2021/11/22 04:51:00;;;;;;;12.57;11.02;;;;;;;;;;5033401;28;20572;-77
2021/11/22 04:53:27;;;;;;;14.90;11.40;;;;;;;;;;5033300;28;20222;-77
2021/11/22 04:55:55;;;;;;;18.67;12.68;;;;;;;;;;5034027;28;20624;-77
2021/11/22 04:58:23;;;;;;;14.27;11.15;;;;;;;;;;5034150;28;20303;-77
2021/11/22 05:00:50;;;;;;;13.38;11.73;;;;;;;;;;5033895;28;20295;-76
2021/11/22 05:03:17;;;;;;;12.75;11.43;;;;;;;;;;5033195;28;20202;-78
2021/11/22 05:05:44;;;;;;;12.82;10.80;;;;;;;;;;5032511;28;20743;-76
2021/11/22 05:08:12;;;;;;;14.27;12.88;;;;;;;;;;5033727;28;20287;-75
2021/11/22 05:10:41;;;;;;;12.93;11.57;;;;;;;;;;5036567;28;20292;-74
2021/11/22 05:13:11;;;;;;;14.32;11.35;;;;;;;;;;5037095;28;20749;-77
2021/11/22 05:15:40;;;;;;;13.75;11.55;;;;;;;;;;5037240;28;20552;-74
2021/11/22 05:18:08;;;;;;;12.38;11.15;;;;;;;;;;5036418;28;20286;-73
2021/11/22 05:20:36;;;;;;;19.88;11.38;;;;;;;;;;5036501;28;20197;-73
2021/11/22 05:23:03;;;;;;;12.93;10.13;;;;;;;;;;5036446;28;20295;-73
2021/11/22 05:25:31;;;;;;;12.75;10.20;;;;;;;;;;5036953;28;20202;-74
2021/11/22 05:27:58;;;;;;;10.85;9.75;;;;;;;;;;5036092;28;20196;-72
2021/11/22 05:30:27;;;;;;;12.95;10.88;;;;;;;;;;5035993;28;20312;-71
2021/11/22 05:32:55;;;;;;;10.52;8.95;;;;;;;;;;5036028;28;20307;-72
2021/11/22 05:35:22;;;;;;;12.00;9.75;;;;;;;;;;5035779;28;20265;-72
2021/11/22 05:37:49;;;;;;;14.43;10.40;;;;;;;;;;5035776;28;20200;-71
2021/11/22 05:40:17;;;;;;;13.68;11.40;;;;;;;;;;5035774;28;20293;-72
2021/11/22 05:42:44;;;;;;;14.65;10.00;;;;;;;;;;5035521;28;20641;-72
2021/11/22 05:45:12;;;;;;;12.77;10.40;;;;;;;;;;5036375;28;20214;-73
2021/11/22 05:47:40;;;;;;;12.32;11.10;;;;;;;;;;5035796;28;20197;-74
2021/11/22 05:50:09;;;;;;;11.15;9.80;;;;;;;;;;5036001;28;20296;-72
2021/11/22 05:52:37;;;;;;;14.93;11.15;;;;;;;;;;5035858;28;20230;-74
2021/11/22 05:55:06;;;;;;;15.88;12.30;;;;;;;;;;5036325;28;20258;-73
2021/11/22 05:57:33;;;;;;;16.42;10.70;;;;;;;;;;5036095;28;20196;-73
2021/11/22 06:00:01;;;;;;;14.68;11.20;;;;;;;;;;5035926;28;20283;-73
2021/11/22 06:02:28;;;;;;;14.05;10.45;;;;;;;;;;5036337;28;20227;-72
2021/11/22 06:04:57;;;;;;;14.25;11.05;;;;;;;;;;5036461;28;20295;-72
2021/11/22 06:07:24;;;;;;;13.40;10.57;;;;;;;;;;5035745;28;20198;-73
2021/11/22 06:09:52;;;;;;;12.93;11.63;;;;;;;;;;5035742;28;20371;-73
2021/11/22 06:12:19;;;;;;;14.30;11.63;;;;;;;;;;5035262;28;20236;-72
2021/11/22 06:14:46;;;;;;;16.15;11.45;;;;;;;;;;5035437;28;20578;-73
2021/11/22 06:17:14;;;;;;;15.88;11.55;;;;;;;;;;5035213;28;20286;-73
2021/11/22 06:19:41;;;;;;;11.82;10.73;;;;;;;;;;5034727;28;20295;-73
2021/11/22 06:22:09;;;;;;;12.85;10.77;;;;;;;;;;5035553;28;20299;-72
2021/11/22 06:24:37;;;;;;;16.05;11.50;;;;;;;;;;5035548;28;20605;-72
2021/11/22 06:27:04;;;;;;;17.10;11.45;;;;;;;;;;5035006;28;20284;-73
2021/11/22 06:29:31;;;;;;;13.25;11.27;;;;;;;;;;5035067;28;20206;-73
2021/11/22 06:31:59;;;;;;;14.23;11.75;;;;;;;;;;5034497;28;20283;-72
2021/11/22 06:34:26;;;;;;;16.27;11.43;;;;;;;;;;5034826;28;20222;-78
2021/11/22 06:36:53;;;;;;;14.20;11.90;;;;;;;;;;5035258;28;20587;-72
2021/11/22 06:39:22;;;;;;;15.95;12.07;;;;;;;;;;5034971;28;20717;-71
2021/11/22 06:41:49;;;;;;;14.18;11.75;;;;;;;;;;5035069;28;20284;-72
2021/11/22 06:44:16;;;;;;;15.35;11.82;;;;;;;;;;5034848;28;20292;-71
2021/11/22 06:46:48;;;;;;;14.93;11.80;;;;;;;;;;5035259;28;20235;-72
2021/11/22 06:49:15;;;;;;;13.70;12.20;;;;;;;;;;5034806;28;20277;-71
2021/11/22 06:51:42;;;;;;;18.10;11.95;;;;;;;;;;5034398;28;20233;-71
2021/11/22 06:54:14;;;;;;;11.73;8.93;;;;;;;;;;5034691;28;20304;-71
2021/11/22 06:56:42;;;;;;;18.65;11.40;;;;;;;;;;5035125;28;20203;-72
2021/11/22 06:59:10;;;;;;;18.25;11.75;;;;;;;;;;5034377;28;20736;-71
2021/11/22 07:01:37;;;;;;;14.27;9.30;;;;;;;;;;5034762;28;20200;-71
2021/11/22 07:04:04;;;;;;;18.15;10.98;;;;;;;;;;5034681;28;20195;-72
2021/11/22 07:06:31;;;;;;;34.75;12.80;;;;;;;;;;5034182;28;20290;-71
2021/11/22 07:08:59;;;;;;;14.05;10.35;;;;;;;;;;5034201;28;20275;-71
2021/11/22 07:11:26;;;;;;;13.18;11.82;;;;;;;;;;5034393;28;20621;-71
2021/11/22 07:13:55;;;;;;;12.07;10.88;;;;;;;;;;5034792;28;20310;-72
2021/11/22 07:16:22;;;;;;;11.93;10.63;;;;;;;;;;5034315;28;20533;-71
2021/11/22 07:18:50;;;;;;;12.63;10.50;;;;;;;;;;5034625;28;20631;-71
2021/11/22 07:21:17;;;;;;;13.35;10.90;;;;;;;;;;5034430;28;20298;-71
2021/11/22 07:23:44;;;;;;;11.85;9.07;;;;;;;;;;5034211;28;20286;-72
2021/11/22 07:26:11;;;;;;;13.10;9.93;;;;;;;;;;5033759;28;20196;-71
2021/11/22 07:28:39;;;;;;;14.75;10.93;;;;;;;;;;5033902;28;20291;-71
2021/11/22 07:31:07;;;;;;;11.52;9.45;;;;;;;;;;5034161;28;20232;-72
2021/11/22 07:33:34;;;;;;;13.80;10.40;;;;;;;;;;5033824;28;20251;-73
2021/11/22 07:36:02;;;;;;;12.43;9.52;;;;;;;;;;5033797;28;20287;-72
2021/11/22 07:38:29;;;;;;;14.77;9.98;;;;;;;;;;5033792;28;20241;-72
2021/11/22 07:40:56;;;;;;;14.90;11.38;;;;;;;;;;5033774;28;20663;-71
2021/11/22 07:43:23;;;;;;;16.10;11.23;;;;;;;;;;5034299;28;20208;-72
2021/11/22 07:45:51;;;;;;;14.82;10.85;;;;;;;;;;5034014;28;20284;-71
2021/11/22 07:48:19;;;;;;;13.65;9.95;;;;;;;;;;5033972;28;20282;-71
2021/11/22 07:50:46;;;;;;;10.35;8.73;;;;;;;;;;5034208;28;20292;-72
2021/11/22 07:53:14;;;;;;;18.10;10.75;;;;;;;;;;5033801;28;20198;-71
2021/11/22 07:55:41;;;;;;;11.02;9.00;;;;;;;;;;5034313;28;20607;-71
2021/11/22 07:58:08;;;;;;;15.85;10.32;;;;;;;;;;5033491;28;20240;-71
2021/11/22 08:00:35;;;;;;;14.68;10.80;;;;;;;;;;5034230;28;20191;-72
2021/11/22 08:03:02;;;;;;;16.60;11.50;;;;;;;;;;5033785;28;20594;-71
2021/11/22 08:05:32;;;;;;;11.82;10.27;;;;;;;;;;5033978;28;20291;-72
2021/11/22 08:07:59;;;;;;;12.02;9.38;;;;;;;;;;5034207;28;20557;-72
2021/11/22 08:10:29;;;;;;;13.57;10.60;;;;;;;;;;5033380;28;20230;-71
2021/11/22 08:12:59;;;;;;;14.82;10.73;;;;;;;;;;5033409;28;20228;-71
2021/11/22 08:15:27;;;;;;;12.10;10.75;;;;;;;;;;5033183;28;20311;-72
2021/11/22 08:17:54;;;;;;;12.27;9.32;;;;;;;;;;5033548;28;20230;-71
2021/11/22 08:20:27;;;;;;;14.52;10.88;;;;;;;;;;5033685;28;20231;-72
2021/11/22 08:22:55;;;;;;;13.32;10.02;;;;;;;;;;5033249;28;20220;-71
2021/11/22 08:25:24;;;;;;;13.60;9.52;;;;;;;;;;5033756;28;20293;-72
2021/11/22 08:27:54;;;;;;;12.93;10.68;;;;;;;;;;5034051;28;20231;-72
2021/11/22 08:30:22;;;;;;;13.50;10.50;;;;;;;;;;5033938;28;20261;-71
2021/11/22 08:32:50;;;;;;;13.50;11.00;;;;;;;;;;5033700;28;20292;-72
2021/11/22 08:35:17;;;;;;;14.95;10.90;;;;;;;;;;5033814;28;20311;-71
2021/11/22 08:37:45;;;;;;;13.73;9.77;;;;;;;;;;5033168;28;20230;-72
2021/11/22 08:40:16;;;;;;;15.07;9.90;;;;;;;;;;5033584;28;20200;-72
2021/11/22 08:42:44;;;;;;;10.23;8.75;;;;;;;;;;5034028;28;20601;-71
2021/11/22 08:45:11;;;;;;;10.52;9.35;;;;;;;;;;5037611;28;20199;-72
2021/11/22 08:47:39;;;;;;;12.00;10.45;;;;;;;;;;5037283;28;20703;-71
2021/11/22 08:50:06;;;;;;;12.40;10.25;;;;;;;;;;5036880;28;20287;-72
2021/11/22 08:52:33;;;;;;;12.45;10.30;;;;;;;;;;5037132;28;20287;-72
2021/11/22 08:55:02;;;;;;;13.68;9.35;;;;;;;;;;5036640;28;20216;-72
2021/11/22 08:57:30;;;;;;;12.48;9.32;;;;;;;;;;5037346;28;20203;-71
2021/11/22 08:59:58;;;;;;;15.18;10.82;;;;;;;;;;5037330;28;20229;-72
2021/11/22 09:02:25;;;;;;;13.73;9.57;;;;;;;;;;5037060;28;20288;-71
2021/11/22 09:04:52;;;;;;;12.02;10.02;;;;;;;;;;5036534;28;20282;-72
2021/11/22 09:07:20;;;;;;;18.60;9.70;;;;;;;;;;5037103;28;20610;-72
2021/11/22 09:09:47;;;;;;;10.90;9.82;;;;;;;;;;5036587;28;20282;-72
2021/11/22 09:12:14;;;;;;;12.95;10.55;;;;;;;;;;5037004;28;20311;-72
2021/11/22 09:14:43;;;;;;;11.82;7.93;;;;;;;;;;5036854;28;20310;-71
2021/11/22 09:17:10;;;;;;;13.90;9.85;;;;;;;;;;5036683;28;20297;-71
2021/11/22 09:19:37;;;;;;;14.35;8.63;;;;;;;;;;5036668;28;20235;-72
2021/11/22 09:22:10;;;;;;;10.27;8.50;;;;;;;;;;5036945;28;20232;-71
2021/11/22 09:24:37;;;;;;;9.45;8.55;;;;;;;;;;5036746;28;20196;-72
2021/11/22 09:27:05;;;;;;;9.50;8.50;;;;;;;;;;5036544;28;20200;-72
2021/11/22 09:29:32;;;;;;;10.57;8.98;;;;;;;;;;5036121;28;20666;-72
2021/11/22 09:32:00;;;;;;;13.88;10.00;;;;;;;;;;5036444;28;20295;-72
2021/11/22 09:34:28;;;;;;;15.98;10.32;;;;;;;;;;5036376;28;20673;-71
2021/11/22 09:36:55;;;;;;;17.30;8.45;;;;;;;;;;5036366;28;20561;-71
2021/11/22 09:39:23;;;;;;;10.93;8.60;;;;;;;;;;5036308;28;20287;-71
2021/11/22 09:41:51;;;;;;;11.93;9.43;;;;;;;;;;5036195;28;20198;-72
2021/11/22 09:44:20;;;;;;;12.18;9.15;;;;;;;;;;5036344;28;20245;-71
2021/11/22 09:46:47;;;;;;;11.85;8.85;;;;;;;;;;5036159;28;20231;-71
2021/11/22 09:49:16;;;;;;;15.98;9.65;;;;;;;;;;5036286;28;20725;-72
2021/11/22 09:51:43;;;;;;;11.77;9.15;;;;;;;;;;5035706;28;20201;-71
2021/11/22 09:54:10;;;;;;;9.90;8.90;;;;;;;;;;5035188;28;20402;-71
2021/11/22 09:56:38;;;;;;;13.25;9.15;;;;;;;;;;5035023;28;20302;-71
2021/11/22 09:59:05;;;;;;;11.57;9.63;;;;;;;;;;5035608;28;20204;-71
2021/11/22 10:01:34;;;;;;;12.95;9.07;;;;;;;;;;5036444;28;20197;-72
2021/11/22 10:04:03;;;;;;;13.68;9.60;;;;;;;;;;5036627;28;20559;-73
2021/11/22 10:06:45;;;;;;;12.65;8.00;;;;;;;;;;5035818;28;20231;-72
2021/11/22 10:09:36;;;;;;;10.27;7.85;;;;;;;;;;5036074;28;20270;-72
2021/11/22 10:12:04;;;;;;;9.90;7.38;;;;;;;;;;5035543;28;20226;-74
2021/11/22 10:14:36;;;;;;;11.80;8.70;;;;;;;;;;5035232;28;20311;-71
2021/11/22 10:17:04;;;;;;;15.52;7.25;;;;;;;;;;5035901;28;20579;-72
2021/11/22 10:19:31;;;;;;;7.32;6.50;;;;;;;;;;5035178;28;20287;-72
2021/11/22 10:21:59;;;;;;;7.57;6.20;;;;;;;;;;5035144;28;20326;-72
2021/11/22 10:24:27;;;;;;;8.50;7.28;;;;;;;;;;5035087;28;20663;-71
2021/11/22 10:26:54;;;;;;;8.43;6.88;;;;;;;;;;5035346;28;20288;-72
2021/11/22 10:29:24;;;;;;;11.32;7.35;;;;;;;;;;5035763;28;20236;-72
2021/11/22 10:31:55;;;;;;;13.10;7.95;;;;;;;;;;5034957;28;20284;-71
2021/11/22 10:34:22;;;;;;;7.78;6.72;;;;;;;;;;5035121;28;20255;-72
2021/11/22 10:36:56;;;;;;;8.25;6.85;;;;;;;;;;5035146;28;20229;-72
2021/11/22 10:39:26;;;;;;;9.95;7.40;;;;;;;;;;5034897;28;20189;-72
2021/11/22 10:41:53;;;;;;;9.88;7.20;;;;;;;;;;5034835;28;20732;-72
2021/11/22 10:44:21;;;;;;;7.47;5.78;;;;;;;;;;5035977;28;20288;-72
2021/11/22 10:46:50;;;;;;;27.67;19.15;;;;;;;;;;5034988;28;20218;-71
2021/11/22 10:49:28;;;;;;;7.38;6.38;;;;;;;;;;5034956;28;20243;-72
2021/11/22 10:52:06;;;;;;;14.93;10.07;;;;;;;;;;5034967;28;20635;-71
2021/11/22 10:54:36;;;;;;;6.18;5.22;;;;;;;;;;5035154;28;20312;-72
2021/11/22 10:57:11;;;;;;;8.00;5.45;;;;;;;;;;5034392;28;20202;-72
2021/11/22 10:59:39;;;;;;;11.85;8.95;;;;;;;;;;5034386;28;20192;-71
2021/11/22 11:02:06;;;;;;;8.20;6.75;;;;;;;;;;5034856;28;20228;-72
2021/11/22 11:04:37;;;;;;;7.75;6.05;;;;;;;;;;5034478;28;20670;-71
2021/11/22 11:07:06;;;;;;;9.70;6.20;;;;;;;;;;5034047;28;20267;-72
2021/11/22 11:09:35;;;;;;;7.75;5.40;;;;;;;;;;5035044;28;20201;-72
2021/11/22 11:12:05;;;;;;;9.05;6.72;;;;;;;;;;5034593;28;20282;-72
2021/11/22 11:14:33;;;;;;;7.53;5.68;;;;;;;;;;5034105;28;20292;-72
2021/11/22 11:17:15;;;;;;;6.43;5.55;;;;;;;;;;5034304;28;20200;-72
2021/11/22 11:19:43;;;;;;;6.30;5.00;;;;;;;;;;5034085;28;20250;-72
2021/11/22 11:22:10;;;;;;;7.93;5.55;;;;;;;;;;5034558;28;20220;-72
2021/11/22 11:24:39;;;;;;;8.02;6.00;;;;;;;;;;5034001;28;20716;-73
2021/11/22 11:27:06;;;;;;;7.38;5.60;;;;;;;;;;5034267;28;20709;-72
2021/11/22 11:29:34;;;;;;;6.95;5.50;;;;;;;;;;5034312;28;20597;-72
2021/11/22 11:32:01;;;;;;;6.57;5.15;;;;;;;;;;5033896;28;20283;-72
2021/11/22 11:34:29;;;;;;;8.52;6.30;;;;;;;;;;5034716;28;20259;-72
2021/11/22 11:37:05;;;;;;;6.03;4.72;;;;;;;;;;5033831;28;20292;-72
2021/11/22 11:39:51;;;;;;;5.57;4.97;;;;;;;;;;5033896;28;20220;-72
2021/11/22 11:42:34;;;;;;;11.18;5.25;;;;;;;;;;5033815;28;20245;-71
2021/11/22 11:45:04;;;;;;;7.38;5.53;;;;;;;;;;5034326;28;20220;-72
2021/11/22 11:47:41;;;;;;;6.00;5.40;;;;;;;;;;5034188;28;20610;-72
2021/11/22 11:50:19;;;;;;;7.80;5.45;;;;;;;;;;5034235;28;20625;-72
2021/11/22 11:52:53;;;;;;;9.57;4.80;;;;;;;;;;5034860;28;20197;-72
2021/11/22 11:55:21;;;;;;;5.15;4.60;;;;;;;;;;5033400;28;20303;-72
2021/11/22 11:57:49;;;;;;;6.70;4.82;;;;;;;;;;5033764;28;20208;-73
2021/11/22 12:00:24;;;;;;;5.88;4.80;;;;;;;;;;5033734;28;20628;-72
2021/11/22 12:03:00;;;;;;;8.23;4.65;;;;;;;;;;5033666;28;20193;-72
2021/11/22 12:05:43;;;;;;;4.80;4.35;;;;;;;;;;5033420;28;20280;-72
2021/11/22 12:08:20;;;;;;;5.68;4.22;;;;;;;;;;5034122;28;20198;-72
2021/11/22 12:10:48;;;;;;;8.60;4.25;;;;;;;;;;5033682;28;20240;-71
2021/11/22 12:13:16;;;;;;;5.03;3.97;;;;;;;;;;5033218;28;20734;-72
2021/11/22 12:15:44;;;;;;;5.22;4.25;;;;;;;;;;5033081;28;20257;-73
2021/11/22 12:18:13;;;;;;;4.50;3.50;;;;;;;;;;5032814;28;20200;-72
2021/11/22 12:20:44;;;;;;;6.30;4.70;;;;;;;;;;5033504;28;20197;-73
2021/11/22 12:23:13;;;;;;;3.97;3.67;;;;;;;;;;5033705;28;20201;-72
2021/11/22 12:25:42;;;;;;;4.18;3.78;;;;;;;;;;5033445;28;20347;-73
2021/11/22 12:28:13;;;;;;;5.55;3.30;;;;;;;;;;5033052;28;20204;-72
2021/11/22 12:30:43;;;;;;;8.73;4.70;;;;;;;;;;5033098;28;20276;-72
2021/11/22 12:33:34;;;;;;;4.35;3.95;;;;;;;;;;5033070;28;20240;-72
2021/11/22 12:36:03;;;;;;;4.00;3.47;;;;;;;;;;5023093;28;20268;-73
2021/11/22 12:38:31;;;;;;;4.35;3.45;;;;;;;;;;5033107;28;20231;-72
2021/11/22 12:40:59;;;;;;;3.80;3.35;;;;;;;;;;5033021;28;20287;-72
2021/11/22 12:43:40;;;;;;;6.10;3.42;;;;;;;;;;5033200;28;20235;-72
2021/11/22 12:46:09;;;;;;;4.55;3.40;;;;;;;;;;5033810;28;20240;-73
2021/11/22 12:48:38;;;;;;;6.90;3.60;;;;;;;;;;5033360;28;20639;-72
2021/11/22 12:51:06;;;;;;;4.95;3.97;;;;;;;;;;5033299;28;20231;-73
2021/11/22 12:53:34;;;;;;;4.10;3.40;;;;;;;;;;5032887;28;20288;-73
2021/11/22 12:56:01;;;;;;;5.93;5.32;;;;;;;;;;5033330;28;20225;-72
2021/11/22 12:58:30;;;;;;;11.65;4.38;;;;;;;;;;5033250;28;20610;-72
2021/11/22 13:00:58;;;;;;;17.95;4.38;;;;;;;;;;5033173;28;20233;-72
2021/11/22 13:03:28;;;;;;;9.32;5.05;;;;;;;;;;5032699;28;20284;-74
2021/11/22 13:05:59;;;;;;;4.40;3.90;;;;;;;;;;5033232;28;20235;-72
2021/11/22 13:08:44;;;;;;;3.63;3.30;;;;;;;;;;5033057;28;20203;-72
2021/11/22 13:11:44;;;;;;;5.55;2.95;;;;;;;;;;5032897;28;20229;-72
2021/11/22 13:14:15;;;;;;;7.25;5.40;;;;;;;;;;5032786;28;20218;-72
2021/11/22 13:16:42;;;;;;;7.50;3.70;;;;;;;;;;5033444;28;20300;-73
2021/11/22 13:19:12;;;;;;;5.90;4.15;;;;;;;;;;5033109;28;20629;-72
2021/11/22 13:21:42;;;;;;;4.28;3.85;;;;;;;;;;5032743;28;20202;-72
2021/11/22 13:24:11;;;;;;;4.38;3.33;;;;;;;;;;5033247;28;20186;-72
2021/11/22 13:26:39;;;;;;;9.68;3.97;;;;;;;;;;5033278;28;20229;-72
2021/11/22 13:29:07;;;;;;;6.43;3.47;;;;;;;;;;5033369;28;20198;-73
2021/11/22 13:31:40;;;;;;;3.70;3.40;;;;;;;;;;5036585;28;20322;-73
2021/11/22 13:34:08;;;;;;;6.15;4.00;;;;;;;;;;5037025;28;20188;-73
2021/11/22 13:36:38;;;;;;;6.15;4.20;;;;;;;;;;5036320;28;20765;-73
2021/11/22 13:39:13;;;;;;;5.85;3.83;;;;;;;;;;5036821;28;20611;-72
2021/11/22 13:41:41;;;;;;;3.30;2.72;;;;;;;;;;5036412;28;20219;-72
2021/11/22 13:44:09;;;;;;;5.60;2.70;;;;;;;;;;5036349;28;20288;-73
2021/11/22 13:46:41;;;;;;;4.10;3.28;;;;;;;;;;5036056;28;20200;-73
2021/11/22 13:49:09;;;;;;;3.30;2.95;;;;;;;;;;5036161;28;20582;-72
2021/11/22 13:51:39;;;;;;;2.80;2.40;;;;;;;;;;5036685;28;20202;-73
2021/11/22 13:54:07;;;;;;;5.95;4.75;;;;;;;;;;5036180;28;20229;-73
2021/11/22 13:56:37;;;;;;;8.38;3.13;;;;;;;;;;5035767;28;20261;-72
2021/11/22 13:59:05;;;;;;;3.50;3.10;;;;;;;;;;5036411;28;20277;-72
2021/11/22 14:01:32;;;;;;;5.85;2.85;;;;;;;;;;5035537;28;20723;-72
2021/11/22 14:04:02;;;;;;;9.85;3.22;;;;;;;;;;5036087;28;20206;-72
2021/11/22 14:06:32;;;;;;;3.25;2.95;;;;;;;;;;5035852;28;20297;-72
2021/11/22 14:09:01;;;;;;;6.78;4.25;;;;;;;;;;5035542;28;20205;-73
2021/11/22 14:11:29;;;;;;;8.18;5.45;;;;;;;;;;5035990;28;20333;-72
2021/11/22 14:13:57;;;;;;;2.50;2.30;;;;;;;;;;5035970;28;20284;-72
2021/11/22 14:16:26;;;;;;;4.18;2.17;;;;;;;;;;5035228;28;20308;-72
2021/11/22 14:18:53;;;;;;;2.75;2.38;;;;;;;;;;5035942;28;20198;-73
2021/11/22 14:21:28;;;;;;;1.92;1.50;;;;;;;;;;5035582;28;20232;-75
2021/11/22 14:24:09;;;;;;;2.20;2.00;;;;;;;;;;5035612;28;20207;-76
2021/11/22 14:26:36;;;;;;;2.17;1.60;;;;;;;;;;5035283;28;20193;-76
2021/11/22 14:29:11;;;;;;;3.50;2.17;;;;;;;;;;5036095;28;20201;-77
2021/11/22 14:31:41;;;;;;;3.10;1.58;;;;;;;;;;5035030;28;20205;-79
2021/11/22 14:34:09;;;;;;;2.40;1.98;;;;;;;;;;5036025;28;20224;-79
2021/11/22 14:36:38;;;;;;;10.82;6.40;;;;;;;;;;5035560;28;20228;-76
2021/11/22 14:39:05;;;;;;;3.42;2.70;;;;;;;;;;5027633;28;20532;-75